Time;durP1;ratioP1;P1;durP2;ratioP2;P2;SDS_P1;SDS_P2;PMS_P1;PMS_P2;Temp;Humidity;BMP_temperature;BMP_pressure;BME280_temperature;BME280_humidity;BME280_pressure;Samples;Min_cycle;Max_cycle;Signal;HPM_P1;HPM_P2
2022/10/07 00:02:18;;;;;;;;;;;;;;;21.11;66.36;98119.31;603874;234;64612;-76
2022/10/07 00:04:45;;;;;;;;;;;;;;;21.11;67.27;98121.98;603816;235;65147;-77
2022/10/07 00:07:13;;;;;;;;;;;;;;;21.11;66.53;98133.48;603799;233;64797;-76
2022/10/07 00:09:41;;;;;;;;;;;;;;;21.10;65.99;98131.07;603756;234;66593;-76
2022/10/07 00:12:08;;;;;;;;;;;;;;;21.10;66.78;98136.42;603798;235;65368;-76
2022/10/07 00:14:36;;;;;;;;;;;;;;;21.11;68.14;98138.02;603815;234;67042;-76
2022/10/07 00:17:03;;;;;;;;;;;;;;;21.09;66.10;98138.28;603837;233;66650;-76
2022/10/07 00:19:31;;;;;;;;;;;;;;;21.10;66.46;98133.74;603777;235;62663;-76
2022/10/07 00:21:59;;;;;;;;;;;;;;;21.09;65.81;98134.78;603797;235;64925;-76
2022/10/07 00:24:26;;;;;;;;;;;;;;;21.09;66.83;98121.41;603762;235;66825;-77
2022/10/07 00:26:54;;;;;;;;;;;;;;;21.10;67.94;98136.42;603798;235;64849;-76
2022/10/07 00:29:23;;;;;;;;;;;;;;;21.09;66.92;98137.45;603790;235;67567;-76
2022/10/07 00:31:53;;;;;;;;;;;;;;;21.08;66.64;98127.83;603784;235;67386;-76
2022/10/07 00:34:20;;;;;;;;;;;;;;;21.08;67.03;98133.17;603755;235;65260;-77
2022/10/07 00:36:53;;;;;;;;;;;;;;;21.07;66.03;98135.04;603773;235;69210;-76
2022/10/07 00:39:18;;;;;;;;;;;;;;;21.08;66.05;98133.17;603766;232;65035;-77
2022/10/07 00:41:53;;;;;;;;;;;;;;;21.06;67.08;98128.89;603399;235;65156;-76
2022/10/07 00:44:34;;;;;;;;;;;;;;;21.07;66.58;98127.02;603172;234;64995;-77
2022/10/07 00:47:06;;;;;;;;;;;;;;;21.06;66.15;98126.22;603217;235;67565;-76
2022/10/07 00:49:35;;;;;;;;;;;;;;;21.06;66.80;98120.88;603137;234;64751;-77
2022/10/07 00:52:04;;;;;;;;;;;;;;;21.05;65.88;98126.45;603157;235;64746;-75
2022/10/07 00:54:31;;;;;;;;;;;;;;;21.05;66.55;98124.58;603213;235;65130;-75
2022/10/07 00:56:59;;;;;;;;;;;;;;;21.04;66.56;98125.64;603292;235;64904;-75
2022/10/07 00:59:26;;;;;;;;;;;;;;;21.05;67.28;98127.25;603224;233;67093;-75
2022/10/07 01:01:54;;;;;;;;;;;;;;;21.04;67.03;98128.31;603217;231;66718;-75
2022/10/07 01:04:21;;;;;;;;;;;;;;;21.04;67.32;98122.97;603229;235;62730;-76
2022/10/07 01:06:49;;;;;;;;;;;;;;;21.04;66.55;98124.84;603208;234;66909;-76
2022/10/07 01:09:19;;;;;;;;;;;;;;;21.04;66.38;98111.48;603282;235;67112;-76
2022/10/07 01:12:00;;;;;;;;;;;;;;;21.03;66.21;98116.02;603286;233;65026;-76
2022/10/07 01:14:32;;;;;;;;;;;;;;;21.03;65.94;98113.34;603214;234;67690;-77
2022/10/07 01:17:01;;;;;;;;;;;;;;;21.02;66.83;98119.73;602766;234;64829;-76
2022/10/07 01:19:35;;;;;;;;;;;;;;;21.02;65.88;98119.73;602244;235;65094;-76
2022/10/07 01:22:16;;;;;;;;;;;;;;;21.03;66.32;98120.53;603016;235;68114;-77
2022/10/07 01:24:48;;;;;;;;;;;;;;;21.02;66.19;98122.40;603024;233;66945;-77
2022/10/07 01:27:17;;;;;;;;;;;;;;;21.01;66.12;98120.79;603322;235;62815;-77
2022/10/07 01:29:54;;;;;;;;;;;;;;;21.02;67.36;98122.40;603236;235;64450;-76
2022/10/07 01:32:23;;;;;;;;;;;;;;;21.02;66.55;98126.94;603040;235;64759;-77
2022/10/07 01:34:53;;;;;;;;;;;;;;;21.01;66.70;98128.01;603183;235;71427;-77
2022/10/07 01:37:22;;;;;;;;;;;;;;;21.01;67.88;98126.14;603227;234;65036;-77
2022/10/07 01:39:51;;;;;;;;;;;;;;;21.00;66.78;98121.02;603242;235;66698;-77
2022/10/07 01:42:20;;;;;;;;;;;;;;;21.01;66.94;98122.66;596680;237;62699;-77
2022/10/07 01:44:50;;;;;;;;;;;;;;;20.99;67.80;98114.88;596776;237;46000;-77
2022/10/07 01:47:18;;;;;;;;;;;;;;;20.98;65.15;98117.77;596732;236;66875;-78
2022/10/07 01:49:47;;;;;;;;;;;;;;;20.99;66.79;98124.76;596808;237;65876;-78
2022/10/07 01:52:22;;;;;;;;;;;;;;;20.98;65.23;98115.11;596790;237;65967;-78
2022/10/07 01:54:55;;;;;;;;;;;;;;;20.99;66.62;98120.22;596733;237;66970;-78
2022/10/07 01:57:27;;;;;;;;;;;;;;;20.99;65.72;98119.41;596734;237;64948;-77
2022/10/07 02:00:00;;;;;;;;;;;;;;;20.97;66.44;98119.64;596781;237;68180;-76
2022/10/07 02:02:46;;;;;;;;;;;;;;;20.97;66.26;98116.17;596355;237;43311;-77
2022/10/07 02:05:21;;;;;;;;;;;;;;;20.98;67.36;98123.12;596720;237;62445;-75
2022/10/07 02:08:05;;;;;;;;;;;;;;;20.96;66.44;98115.36;596720;237;67341;-77
2022/10/07 02:10:40;;;;;;;;;;;;;;;20.95;66.88;98111.09;596750;237;67670;-76
2022/10/07 02:13:12;;;;;;;;;;;;;;;20.97;68.37;98113.50;598839;235;65254;-77
2022/10/07 02:15:46;;;;;;;;;;;;;;;20.94;66.50;98117.47;603747;235;50154;-76
2022/10/07 02:18:15;;;;;;;;;;;;;;;20.94;66.66;98117.47;603792;235;66900;-76
2022/10/07 02:20:44;;;;;;;;;;;;;;;20.94;66.63;98116.66;603746;235;62746;-76
2022/10/07 02:23:14;;;;;;;;;;;;;;;20.95;66.88;98115.59;603769;235;67136;-77
2022/10/07 02:25:49;;;;;;;;;;;;;;;20.95;66.94;98123.61;603796;235;64634;-76
2022/10/07 02:28:18;;;;;;;;;;;;;;;20.93;65.91;98112.38;603838;235;62779;-76
2022/10/07 02:30:47;;;;;;;;;;;;;;;20.93;66.64;98120.39;603767;235;66684;-77
2022/10/07 02:33:15;;;;;;;;;;;;;;;20.93;66.79;98115.05;603727;235;63009;-77
2022/10/07 02:35:44;;;;;;;;;;;;;;;20.92;67.10;98114.22;603728;235;65657;-77
2022/10/07 02:38:14;;;;;;;;;;;;;;;20.93;67.22;98113.19;603698;233;67307;-77
2022/10/07 02:40:43;;;;;;;;;;;;;;;20.93;67.76;98115.86;603766;235;66864;-77
2022/10/07 02:43:16;;;;;;;;;;;;;;;20.93;67.09;98110.52;603771;234;62479;-77
2022/10/07 02:46:01;;;;;;;;;;;;;;;20.93;68.65;98109.70;602897;233;67141;-76
2022/10/07 02:48:30;;;;;;;;;;;;;;;20.92;68.58;98106.20;590235;237;64752;-77
2022/10/07 02:50:59;;;;;;;;;;;;;;;20.92;68.62;98108.88;599218;235;65229;-76
2022/10/07 02:53:31;;;;;;;;;;;;;;;20.91;67.98;98104.59;603751;235;67029;-77
2022/10/07 02:55:59;;;;;;;;;;;;;;;20.90;67.45;98102.98;603860;235;66926;-76
2022/10/07 02:58:26;;;;;;;;;;;;;;;20.90;67.47;98094.97;603736;234;63721;-77
2022/10/07 03:00:56;;;;;;;;;;;;;;;20.90;67.11;98102.16;603729;235;67092;-77
2022/10/07 03:03:25;;;;;;;;;;;;;;;20.89;67.48;98093.33;603730;235;64801;-76
2022/10/07 03:05:54;;;;;;;;;;;;;;;20.89;66.52;98103.22;603767;235;46609;-78
2022/10/07 03:08:23;;;;;;;;;;;;;;;20.90;69.22;98108.33;603811;235;64395;-75
2022/10/07 03:10:50;;;;;;;;;;;;;;;20.89;67.57;98108.56;603765;235;67356;-76
2022/10/07 03:13:18;;;;;;;;;;;;;;;20.89;68.52;98109.36;603744;235;62775;-75
2022/10/07 03:15:47;;;;;;;;;;;;;;;20.90;67.99;98112.84;603711;235;45658;-75
2022/10/07 03:18:27;;;;;;;;;;;;;;;20.88;66.94;98121.12;603781;235;45628;-75
2022/10/07 03:21:02;;;;;;;;;;;;;;;20.87;68.55;98114.16;603665;233;45936;-77
2022/10/07 03:23:30;;;;;;;;;;;;;;;20.88;66.25;98117.64;603789;235;67019;-77
2022/10/07 03:25:58;;;;;;;;;;;;;;;20.89;67.94;98113.91;603736;235;65109;-77
2022/10/07 03:28:27;;;;;;;;;;;;;;;20.88;67.24;98114.97;603739;233;65844;-77
2022/10/07 03:30:56;;;;;;;;;;;;;;;20.87;66.63;98116.00;603766;235;64557;-77
2022/10/07 03:33:25;;;;;;;;;;;;;;;20.87;66.34;98116.00;603505;235;64822;-77
2022/10/07 03:35:53;;;;;;;;;;;;;;;20.87;67.58;98118.67;603715;233;62322;-77
2022/10/07 03:38:21;;;;;;;;;;;;;;;20.86;66.87;98115.20;603786;235;64861;-77
2022/10/07 03:40:49;;;;;;;;;;;;;;;20.87;66.94;98121.34;603729;234;66851;-77
2022/10/07 03:43:17;;;;;;;;;;;;;;;20.86;67.87;98123.21;603797;235;62715;-77
2022/10/07 03:45:45;;;;;;;;;;;;;;;20.86;67.22;98125.89;603756;235;66934;-77
2022/10/07 03:48:14;;;;;;;;;;;;;;;20.86;67.03;98125.08;603686;233;67180;-77
2022/10/07 03:50:41;;;;;;;;;;;;;;;20.85;66.73;98118.94;603774;233;64865;-77
2022/10/07 03:53:10;;;;;;;;;;;;;;;20.86;69.11;98125.08;603763;235;65077;-77
2022/10/07 03:55:38;;;;;;;;;;;;;;;20.85;68.05;98129.62;603767;235;66938;-77
2022/10/07 03:58:06;;;;;;;;;;;;;;;20.84;68.25;98122.64;603720;233;62795;-77
2022/10/07 04:00:33;;;;;;;;;;;;;;;20.83;67.78;98124.51;603769;235;67073;-78
2022/10/07 04:03:01;;;;;;;;;;;;;;;20.85;67.60;98118.94;603764;235;66666;-77
2022/10/07 04:05:28;;;;;;;;;;;;;;;20.83;66.23;98121.83;603791;235;64928;-78
2022/10/07 04:07:57;;;;;;;;;;;;;;;20.82;65.69;98128.24;603803;235;66738;-78
2022/10/07 04:10:25;;;;;;;;;;;;;;;20.84;67.31;98130.66;603812;235;66863;-77
2022/10/07 04:12:53;;;;;;;;;;;;;;;20.83;67.56;98131.72;603839;235;65119;-77
2022/10/07 04:15:21;;;;;;;;;;;;;;;20.84;69.13;98130.66;603801;235;64152;-77
2022/10/07 04:17:49;;;;;;;;;;;;;;;20.83;67.90;98134.39;603829;235;66903;-77
2022/10/07 04:20:17;;;;;;;;;;;;;;;20.82;68.01;98130.11;603784;234;65147;-77
2022/10/07 04:22:45;;;;;;;;;;;;;;;20.82;68.07;98130.91;603829;235;66461;-77
2022/10/07 04:28:01;;;;;;;;;;;;;;;20.81;68.20;98131.14;603809;233;62566;-75
2022/10/07 04:30:35;;;;;;;;;;;;;;;20.80;67.61;98126.86;603839;235;66715;-75
2022/10/07 04:33:02;;;;;;;;;;;;;;;20.81;68.41;98128.47;603773;232;64741;-76
2022/10/07 04:35:31;;;;;;;;;;;;;;;20.80;67.77;98132.20;603769;235;62771;-76
2022/10/07 04:37:58;;;;;;;;;;;;;;;20.80;69.54;98130.34;603787;235;67034;-76
2022/10/07 04:40:26;;;;;;;;;;;;;;;20.79;68.02;98123.39;603583;235;67815;-75
2022/10/07 04:45:40;;;;;;;;;;;;;;;20.79;69.49;98135.94;603280;235;64836;-76
2022/10/07 04:48:08;;;;;;;;;;;;;;;20.76;66.57;98128.39;603221;235;67294;-76
2022/10/07 04:50:39;;;;;;;;;;;;;;;20.78;68.67;98137.78;603198;235;65637;-76
2022/10/07 04:53:07;;;;;;;;;;;;;;;20.78;68.10;98135.11;603214;235;68129;-76
2022/10/07 04:55:37;;;;;;;;;;;;;;;20.78;67.71;98142.31;603229;235;64479;-76
2022/10/07 04:58:07;;;;;;;;;;;;;;;20.77;69.47;98152.20;603271;235;45011;-77
2022/10/07 05:00:35;;;;;;;;;;;;;;;20.77;68.44;98140.71;603261;233;67282;-76
2022/10/07 05:03:03;;;;;;;;;;;;;;;20.77;68.61;98143.38;603209;235;64783;-76
2022/10/07 05:05:30;;;;;;;;;;;;;;;20.77;69.88;98143.38;603188;234;62762;-76
2022/10/07 05:07:58;;;;;;;;;;;;;;;20.76;69.91;98141.74;603204;235;67809;-77
2022/10/07 05:10:26;;;;;;;;;;;;;;;20.77;68.81;98148.72;603068;235;64983;-77
2022/10/07 05:12:54;;;;;;;;;;;;;;;20.76;71.10;98145.25;603198;235;64901;-77
2022/10/07 05:15:22;;;;;;;;;;;;;;;20.76;68.36;98149.76;603230;235;64504;-77
2022/10/07 05:17:54;;;;;;;;;;;;;;;20.75;69.04;98151.63;597944;235;68297;-77
2022/10/07 05:20:23;;;;;;;;;;;;;;;20.75;67.81;98156.16;603225;234;65309;-77
2022/10/07 05:22:50;;;;;;;;;;;;;;;20.74;67.91;98158.03;603250;235;67175;-77
2022/10/07 05:25:18;;;;;;;;;;;;;;;20.75;69.74;98169.52;603232;233;66893;-77
2022/10/07 05:27:49;;;;;;;;;;;;;;;20.74;67.88;98157.22;603210;235;63101;-77
2022/10/07 05:30:18;;;;;;;;;;;;;;;20.73;66.98;98160.93;603213;235;64887;-77
2022/10/07 05:32:47;;;;;;;;;;;;;;;20.74;67.92;98162.56;603189;235;64762;-77
2022/10/07 05:35:15;;;;;;;;;;;;;;;20.74;68.97;98160.70;603209;235;64867;-77
2022/10/07 05:37:42;;;;;;;;;;;;;;;20.74;69.61;98154.55;603213;234;64874;-77
2022/10/07 05:40:10;;;;;;;;;;;;;;;20.72;69.40;98157.45;603262;234;67018;-77
2022/10/07 05:42:38;;;;;;;;;;;;;;;20.72;69.09;98164.66;603773;235;65614;-76
2022/10/07 05:45:06;;;;;;;;;;;;;;;20.73;69.85;98163.59;603768;233;64453;-77
2022/10/07 05:47:34;;;;;;;;;;;;;;;20.72;66.90;98167.33;603807;235;66741;-77
2022/10/07 05:50:02;;;;;;;;;;;;;;;20.72;69.94;98170.00;603834;233;64989;-76
2022/10/07 05:52:30;;;;;;;;;;;;;;;20.71;68.12;98168.39;603844;235;66969;-77
2022/10/07 05:54:58;;;;;;;;;;;;;;;20.71;68.49;98168.39;603754;235;64549;-77
2022/10/07 05:57:27;;;;;;;;;;;;;;;20.71;69.53;98177.21;603734;234;65639;-76
2022/10/07 05:59:57;;;;;;;;;;;;;;;20.71;67.49;98173.73;603718;235;64890;-79
2022/10/07 06:02:24;;;;;;;;;;;;;;;20.69;67.86;98171.30;603242;235;64745;-79
2022/10/07 06:04:52;;;;;;;;;;;;;;;20.70;69.81;98177.44;597617;235;65694;-76
2022/10/07 06:07:22;;;;;;;;;;;;;;;20.70;70.41;98174.77;595062;238;64987;-76
2022/10/07 06:15:22;;;;;;;;;;;;;;;20.66;66.96;98173.64;595067;238;65491;-73
2022/10/07 06:17:50;;;;;;;;;;;;;;;20.67;72.83;98180.59;595157;238;64819;-76
2022/10/07 06:20:18;;;;;;;;;;;;;;;20.66;69.26;98174.45;595087;238;65646;-76
2022/10/07 06:22:46;;;;;;;;;;;;;;;20.67;71.26;98180.59;596093;237;67292;-76
2022/10/07 06:25:16;;;;;;;;;;;;;;;20.66;71.74;98178.98;597665;235;48271;-74
2022/10/07 06:27:44;;;;;;;;;;;;;;;20.67;71.16;98177.92;597638;237;65687;-77
2022/10/07 06:30:12;;;;;;;;;;;;;;;20.66;69.46;98173.64;597557;237;64959;-75
2022/10/07 06:32:39;;;;;;;;;;;;;;;20.66;69.55;98173.64;597530;237;66982;-73
2022/10/07 06:35:07;;;;;;;;;;;;;;;20.66;64.85;98173.64;597552;237;64896;-73
2022/10/07 06:37:34;;;;;;;;;;;;;;;20.69;69.96;98186.52;597584;237;64819;-73
2022/10/07 06:40:03;;;;;;;;;;;;;;;20.68;69.86;98188.38;597233;237;67344;-72
2022/10/07 06:42:31;;;;;;;;;;;;;;;20.68;67.90;98183.05;594986;238;62386;-71
2022/10/07 06:45:16;;;;;;;;;;;;;;;20.68;68.82;98188.38;595111;237;37961;-71
2022/10/07 06:47:45;;;;;;;;;;;;;;;20.69;70.80;98184.65;595147;238;67338;-74
2022/10/07 06:50:13;;;;;;;;;;;;;;;20.68;68.78;98185.71;595242;238;65770;-72
2022/10/07 06:52:40;;;;;;;;;;;;;;;20.69;70.88;98194.53;595153;238;64948;-76
2022/10/07 06:55:08;;;;;;;;;;;;;;;20.67;68.16;98185.94;595039;238;67291;-76
2022/10/07 06:57:38;;;;;;;;;;;;;;;20.68;70.33;98192.89;588779;238;66147;-79
2022/10/07 07:00:06;;;;;;;;;;;;;;;20.68;67.58;98192.89;587303;240;65006;-75
2022/10/07 07:02:35;;;;;;;;;;;;;;;20.67;66.47;98186.74;590596;238;64215;-77
2022/10/07 07:05:07;;;;;;;;;;;;;;;20.69;70.00;98181.98;586898;240;66281;-81
2022/10/07 07:07:37;;;;;;;;;;;;;;;20.69;69.67;98179.31;590597;238;67288;-81
2022/10/07 07:10:05;;;;;;;;;;;;;;;20.68;67.54;98177.70;586862;241;65148;-73
2022/10/07 07:12:33;;;;;;;;;;;;;;;20.69;69.20;98173.16;590428;238;65766;-75
2022/10/07 07:15:01;;;;;;;;;;;;;;;20.70;69.82;98172.09;590718;238;66975;-75
2022/10/07 07:17:28;;;;;;;;;;;;;;;20.69;69.78;98167.81;589411;238;64799;-73
2022/10/07 07:19:56;;;;;;;;;;;;;;;20.69;71.17;98171.30;587178;241;65596;-74
2022/10/07 07:22:29;;;;;;;;;;;;;;;20.69;69.34;98167.81;587365;241;64842;-74
2022/10/07 07:24:53;;;;;;;;;;;;;;;20.71;70.26;98168.39;587132;239;66656;-74
2022/10/07 07:27:21;;;;;;;;;;;;;;;20.69;69.84;98160.61;587401;241;65751;-74
2022/10/07 07:29:49;;;;;;;;;;;;;;;20.69;68.54;98165.14;587452;241;66749;-75
2022/10/07 07:32:17;;;;;;;;;;;;;;;20.69;68.81;98157.94;587421;241;67401;-74
2022/10/07 07:34:45;;;;;;;;;;;;;;;20.69;67.67;98159.80;587303;241;62378;-74
2022/10/07 07:37:14;;;;;;;;;;;;;;;20.69;68.21;98154.46;590554;238;46052;-73
2022/10/07 07:39:43;;;;;;;;;;;;;;;20.70;69.55;98156.07;590483;238;45098;-74
2022/10/07 07:42:12;;;;;;;;;;;;;;;20.69;67.42;98146.45;588107;238;43999;-73
2022/10/07 07:44:40;;;;;;;;;;;;;;;20.69;66.53;98146.45;595073;238;67084;-75
2022/10/07 07:47:09;;;;;;;;;;;;;;;20.70;69.45;98142.72;590681;238;43666;-74
2022/10/07 07:49:37;;;;;;;;;;;;;;;20.71;68.90;98147.03;586846;241;65730;-68
2022/10/07 07:52:05;;;;;;;;;;;;;;;20.70;67.41;98142.72;593806;238;64497;-72
2022/10/07 07:54:40;;;;;;;;;;;;;;;20.69;66.98;98149.92;586883;240;45447;-73
2022/10/07 07:57:07;;;;;;;;;;;;;;;20.70;68.86;98148.06;588465;238;62900;-72
2022/10/07 07:59:36;;;;;;;;;;;;;;;20.70;68.08;98148.06;588947;238;67269;-70
2022/10/07 08:02:04;;;;;;;;;;;;;;;20.69;69.04;98147.25;590226;238;67288;-72
2022/10/07 08:04:32;;;;;;;;;;;;;;;20.69;67.90;98146.45;590231;238;65936;-74
2022/10/07 08:07:00;;;;;;;;;;;;;;;20.68;68.01;98147.48;586941;241;64732;-73
2022/10/07 08:09:28;;;;;;;;;;;;;;;20.69;68.06;98146.45;587389;241;67262;-72
2022/10/07 08:11:56;;;;;;;;;;;;;;;20.69;67.55;98146.45;587430;241;62738;-72
2022/10/07 08:14:23;;;;;;;;;;;;;;;20.69;68.63;98143.78;590620;238;67035;-73
2022/10/07 08:16:54;;;;;;;;;;;;;;;20.68;67.78;98150.98;586357;241;66813;-72
2022/10/07 08:19:21;;;;;;;;;;;;;;;20.69;69.06;98141.11;589296;238;64970;-73
2022/10/07 08:21:49;;;;;;;;;;;;;;;20.69;68.92;98143.78;591920;238;66800;-72
2022/10/07 08:24:18;;;;;;;;;;;;;;;20.68;69.80;98140.30;590562;238;43453;-74
2022/10/07 08:26:46;;;;;;;;;;;;;;;20.69;69.45;98141.11;590571;238;64898;-72
2022/10/07 08:29:15;;;;;;;;;;;;;;;20.68;69.05;98139.47;586884;241;64714;-73
2022/10/07 08:31:44;;;;;;;;;;;;;;;20.67;67.55;98133.32;587405;241;64315;-70
2022/10/07 08:34:11;;;;;;;;;;;;;;;20.67;65.75;98138.66;587516;241;63846;-73
2022/10/07 08:36:39;;;;;;;;;;;;;;;20.68;68.91;98132.29;590311;238;64605;-73
2022/10/07 08:39:07;;;;;;;;;;;;;;;20.68;68.95;98123.44;587759;238;67056;-74
2022/10/07 08:41:52;;;;;;;;;;;;;;;20.69;69.83;98125.08;593738;235;64884;-74
2022/10/07 08:44:21;;;;;;;;;;;;;;;20.69;70.77;98131.23;595555;237;64601;-74
2022/10/07 08:47:00;;;;;;;;;;;;;;;20.68;69.88;98120.77;594045;238;67045;-72
2022/10/07 08:49:33;;;;;;;;;;;;;;;20.66;69.15;98126.37;594465;236;65020;-74
2022/10/07 08:52:02;;;;;;;;;;;;;;;20.67;70.82;98121.83;594872;237;67492;-73
2022/10/07 08:54:30;;;;;;;;;;;;;;;20.66;69.34;98122.89;596774;237;64840;-69
2022/10/07 08:56:59;;;;;;;;;;;;;;;20.65;69.08;98114.05;597665;237;62833;-72
2022/10/07 08:59:30;;;;;;;;;;;;;;;20.65;68.11;98105.23;597517;237;67100;-71
2022/10/07 09:02:15;;;;;;;;;;;;;;;20.66;70.21;98112.21;597642;237;67148;-70
2022/10/07 09:04:48;;;;;;;;;;;;;;;20.65;70.17;98108.70;597612;237;64867;-70
2022/10/07 09:07:18;;;;;;;;;;;;;;;20.65;69.81;98108.70;597663;237;65818;-72
2022/10/07 09:09:49;;;;;;;;;;;;;;;20.65;70.00;98097.22;597669;237;66921;-72
2022/10/07 09:12:21;;;;;;;;;;;;;;;20.66;70.84;98101.53;597599;237;64075;-72
2022/10/07 09:14:50;;;;;;;;;;;;;;;20.64;70.48;98090.27;597168;237;67146;-69
2022/10/07 09:17:22;;;;;;;;;;;;;;;20.63;66.72;98091.33;597670;237;67380;-69
2022/10/07 09:19:51;;;;;;;;;;;;;;;20.62;64.25;98082.48;597578;237;64911;-70
2022/10/07 09:22:20;;;;;;;;;;;;;;;20.63;65.74;98083.32;597582;237;64962;-67
2022/10/07 09:24:48;;;;;;;;;;;;;;;20.64;68.90;98080.39;597672;237;67167;-71
2022/10/07 09:27:21;;;;;;;;;;;;;;;20.64;67.61;98079.59;597634;237;64905;-72
2022/10/07 09:29:47;;;;;;;;;;;;;;;20.63;66.36;98073.44;597592;237;65853;-71
2022/10/07 09:32:17;;;;;;;;;;;;;;;20.63;67.70;98077.98;597694;237;66617;-73
2022/10/07 09:34:46;;;;;;;;;;;;;;;20.63;67.46;98064.63;597626;237;64891;-71
2022/10/07 09:37:20;;;;;;;;;;;;;;;20.63;64.40;98072.64;597668;237;67270;-71
2022/10/07 09:39:49;;;;;;;;;;;;;;;20.63;66.91;98056.61;597661;237;67490;-71
2022/10/07 09:42:28;;;;;;;;;;;;;;;20.63;65.48;98064.63;595765;234;65103;-72
2022/10/07 09:44:57;;;;;;;;;;;;;;;20.61;66.73;98054.97;595205;238;67264;-72
2022/10/07 09:47:26;;;;;;;;;;;;;;;20.63;67.13;98059.28;589623;238;66916;-72
2022/10/07 09:49:58;;;;;;;;;;;;;;;20.63;67.78;98056.61;587272;241;64845;-71
2022/10/07 09:52:28;;;;;;;;;;;;;;;20.60;67.45;98048.03;587545;239;47212;-72
2022/10/07 09:54:57;;;;;;;;;;;;;;;20.59;66.10;98046.39;590603;238;67680;-71
2022/10/07 09:57:26;;;;;;;;;;;;;;;20.60;67.30;98041.87;588837;238;64907;-71
2022/10/07 10:00:13;;;;;;;;;;;;;;;20.61;67.97;98041.63;588246;238;67745;-68
2022/10/07 10:02:42;;;;;;;;;;;;;;;20.59;67.90;98041.05;592186;238;64832;-73
2022/10/07 10:05:24;;;;;;;;;;;;;;;20.59;68.43;98033.03;586797;240;65091;-70
2022/10/07 10:07:56;;;;;;;;;;;;;;;20.59;67.88;98030.36;590675;238;64919;-72
2022/10/07 10:10:25;;;;;;;;;;;;;;;20.59;67.09;98030.36;586631;240;67142;-72
2022/10/07 10:12:55;;;;;;;;;;;;;;;20.60;68.06;98018.65;587362;241;62750;-72
2022/10/07 10:15:27;;;;;;;;;;;;;;;20.60;68.86;98020.52;588428;241;66850;-72
2022/10/07 10:17:56;;;;;;;;;;;;;;;20.59;68.98;98024.22;588331;241;66951;-70
2022/10/07 10:20:25;;;;;;;;;;;;;;;20.59;69.69;98025.02;588451;241;62979;-70
2022/10/07 10:22:53;;;;;;;;;;;;;;;20.58;68.48;98015.41;588465;241;67262;-70
2022/10/07 10:28:37;;;;;;;;;;;;;;;20.56;66.66;98001.48;588453;241;63005;-71
2022/10/07 10:31:10;;;;;;;;;;;;;;;20.59;70.84;98011.67;588396;241;65781;-71
2022/10/07 10:33:42;;;;;;;;;;;;;;;20.58;70.31;98010.06;587964;239;64841;-71
2022/10/07 10:36:15;;;;;;;;;;;;;;;20.58;70.59;97998.58;588156;241;63040;-71
2022/10/07 10:38:45;;;;;;;;;;;;;;;20.57;68.05;98000.45;588239;241;65261;-72
2022/10/07 10:41:17;;;;;;;;;;;;;;;20.59;69.36;98002.85;590640;238;66877;-70
2022/10/07 10:44:01;;;;;;;;;;;;;;;20.58;69.26;97998.58;596117;238;64860;-71
2022/10/07 10:46:38;;;;;;;;;;;;;;;20.57;70.41;97984.42;596159;238;64811;-70
2022/10/07 10:49:10;;;;;;;;;;;;;;;20.56;67.92;97985.45;596176;238;66781;-71
2022/10/07 10:51:38;;;;;;;;;;;;;;;20.56;69.00;97977.44;596012;237;62821;-73
2022/10/07 10:54:09;;;;;;;;;;;;;;;20.53;66.68;97969.92;596016;238;67678;-71
2022/10/07 10:56:53;;;;;;;;;;;;;;;20.57;68.33;97972.91;596215;235;67115;-73
2022/10/07 10:59:37;;;;;;;;;;;;;;;20.57;67.95;97975.58;596162;236;65337;-75
2022/10/07 11:02:09;;;;;;;;;;;;;;;20.57;71.02;97962.22;596115;238;64957;-76
2022/10/07 11:04:53;;;;;;;;;;;;;;;20.56;68.27;97964.09;596188;238;66691;-75
2022/10/07 11:07:35;;;;;;;;;;;;;;;20.56;68.10;97956.08;596187;236;65248;-73
2022/10/07 11:10:04;;;;;;;;;;;;;;;20.55;69.98;97949.13;595989;238;64842;-74
2022/10/07 11:12:36;;;;;;;;;;;;;;;20.55;68.69;97951.80;596065;236;67086;-74
2022/10/07 11:15:05;;;;;;;;;;;;;;;20.55;69.78;97951.80;596029;238;65266;-73
2022/10/07 11:17:36;;;;;;;;;;;;;;;20.54;69.49;97950.20;595998;238;67011;-74
2022/10/07 11:20:07;;;;;;;;;;;;;;;20.54;69.31;97938.68;596189;238;67131;-74
2022/10/07 11:22:36;;;;;;;;;;;;;;;20.55;70.17;97934.98;594287;238;62741;-67
2022/10/07 11:25:05;;;;;;;;;;;;;;;20.54;69.65;97939.52;596180;236;65320;-74
2022/10/07 11:27:34;;;;;;;;;;;;;;;20.55;69.03;97933.11;595533;238;65777;-74
2022/10/07 11:30:12;;;;;;;;;;;;;;;20.55;69.49;97932.31;596195;237;62999;-75
2022/10/07 11:32:43;;;;;;;;;;;;;;;20.55;70.00;97926.97;596003;238;65045;-74
2022/10/07 11:35:18;;;;;;;;;;;;;;;20.54;68.74;97926.16;596171;238;66899;-68
2022/10/07 11:37:54;;;;;;;;;;;;;;;20.55;69.57;97929.64;596226;238;66046;-74
2022/10/07 11:40:22;;;;;;;;;;;;;;;20.53;68.51;97927.20;596159;238;68030;-74
2022/10/07 11:42:52;;;;;;;;;;;;;;;20.54;69.15;97920.83;597567;237;66872;-75
2022/10/07 11:45:21;;;;;;;;;;;;;;;20.54;69.22;97917.32;597649;237;63986;-75
2022/10/07 11:47:57;;;;;;;;;;;;;;;20.53;69.47;97911.18;597367;235;65042;-75
2022/10/07 11:50:30;;;;;;;;;;;;;;;20.53;69.37;97916.52;596127;237;67124;-75
2022/10/07 11:53:00;;;;;;;;;;;;;;;20.54;68.83;97915.48;597696;237;62870;-73
2022/10/07 11:55:35;;;;;;;;;;;;;;;20.53;69.50;97916.52;597653;236;69082;-73
2022/10/07 11:58:04;;;;;;;;;;;;;;;20.54;68.72;97911.98;597616;237;67110;-74
2022/10/07 12:00:33;;;;;;;;;;;;;;;20.54;69.63;97906.64;597642;237;65111;-74
2022/10/07 12:03:21;;;;;;;;;;;;;;;20.54;68.99;97912.81;597529;235;67083;-73
2022/10/07 12:05:52;;;;;;;;;;;;;;;20.53;68.63;97911.18;597669;237;66678;-74
2022/10/07 12:08:37;;;;;;;;;;;;;;;20.54;69.14;97903.97;597592;237;64958;-73
2022/10/07 12:11:15;;;;;;;;;;;;;;;20.53;68.95;97903.17;597431;235;64911;-74
2022/10/07 12:13:44;;;;;;;;;;;;;;;20.53;68.89;97907.67;597675;237;65256;-75
2022/10/07 12:16:26;;;;;;;;;;;;;;;20.52;69.21;97896.19;597701;237;65163;-74
2022/10/07 12:19:09;;;;;;;;;;;;;;;20.53;67.58;97897.83;597575;237;69264;-74
2022/10/07 12:21:58;;;;;;;;;;;;;;;20.53;69.42;97900.49;597688;237;66921;-74
2022/10/07 12:24:24;;;;;;;;;;;;;;;20.52;68.59;97885.51;597656;237;65107;-74
2022/10/07 12:26:52;;;;;;;;;;;;;;;20.52;69.16;97890.85;597611;237;64843;-72
2022/10/07 12:29:22;;;;;;;;;;;;;;;20.54;70.03;97882.61;597718;237;66908;-74
2022/10/07 12:31:50;;;;;;;;;;;;;;;20.51;68.26;97881.20;597717;237;64982;-75
2022/10/07 12:34:22;;;;;;;;;;;;;;;20.53;69.38;97881.80;597650;237;66771;-75
2022/10/07 12:36:49;;;;;;;;;;;;;;;20.53;68.46;97884.47;597651;235;64600;-74
2022/10/07 12:39:28;;;;;;;;;;;;;;;20.53;69.67;97892.48;597624;237;62708;-75
2022/10/07 12:41:57;;;;;;;;;;;;;;;20.53;68.24;97880.97;596818;235;67023;-76
2022/10/07 12:44:29;;;;;;;;;;;;;;;20.52;68.04;97880.17;596261;238;64664;-75
2022/10/07 12:46:58;;;;;;;;;;;;;;;20.53;68.43;97875.63;596187;238;64927;-77
2022/10/07 12:49:35;;;;;;;;;;;;;;;20.53;67.99;97870.29;596242;238;67009;-74
2022/10/07 12:52:07;;;;;;;;;;;;;;;20.53;68.96;97868.45;596234;238;66804;-75
2022/10/07 12:54:52;;;;;;;;;;;;;;;20.53;68.08;97864.95;595384;238;63026;-73
2022/10/07 12:57:22;;;;;;;;;;;;;;;20.53;69.88;97864.95;596272;238;64905;-73
2022/10/07 12:59:57;;;;;;;;;;;;;;;20.53;67.88;97864.95;596238;235;64712;-72
2022/10/07 13:02:42;;;;;;;;;;;;;;;20.52;68.13;97853.47;596111;235;65343;-73
2022/10/07 13:05:15;;;;;;;;;;;;;;;20.52;68.66;97848.12;596196;238;67128;-73
2022/10/07 13:08:00;;;;;;;;;;;;;;;20.52;69.32;97847.33;596218;238;66931;-72
2022/10/07 13:10:32;;;;;;;;;;;;;;;20.52;69.69;97853.47;596234;238;65217;-72
2022/10/07 13:13:03;;;;;;;;;;;;;;;20.52;69.61;97850.80;596190;238;67085;-70
2022/10/07 13:15:34;;;;;;;;;;;;;;;20.51;63.88;97846.49;596078;238;66901;-70
2022/10/07 13:18:05;;;;;;;;;;;;;;;20.52;65.31;97848.12;595951;238;65021;-73
2022/10/07 13:20:35;;;;;;;;;;;;;;;20.52;67.92;97840.11;596203;236;67044;-73